»·PEaware :: N172GW KSBD-KEMT

N172GW :: KSBD-KEMT

FLIGHT INFORMATION

Flight Status: Arrived
Operator: Privately registered:
United States
More flights under this callsign
Pilot: Victor C. (32144)
Aircraft: CESSNA 172 SKYHAWK
(C172)
More flights by this aircraft type
Origin: KSBD San Bernardino Intl
United States
Destination: KEMT El Monte
United States
More flights between these airports :: More routes between these airports
Route:
File this flight plan on PilotEdge
Remarks: CAT 7
Altitude:
(Current/Filed)
4,500ft
Speed:
(Current/Filed)
110kts
Departed: 18-Dec-20 08:20 AM
Arrived: 18-Dec-20 08:49 AM
Distance/Time
Traveled:
40nm/0:28
Distance/Time
To Go:
Arrived

Flight Plot

Page will automatically refresh every two minutes.


Map Options




Map Legend


Flown Route
Filed Route
Departure Airport
Arrival Airport
Navaid (VOR, NDB)
Fix

Horizontal Profiles

Position Reports

Time Latitude Longitude Heading Altitude Ground
Speed
18-Dec-20 07:43 34.101447 -117.225116 271 1152ft 0kts
18-Dec-20 07:44 34.101447 -117.225116 271 1152ft 0kts
18-Dec-20 07:45 34.101447 -117.225116 271 1152ft 0kts
18-Dec-20 07:46 34.101447 -117.225116 271 1152ft 0kts
18-Dec-20 07:47 34.101447 -117.225116 271 1152ft 0kts
18-Dec-20 07:48 34.101447 -117.225116 271 1152ft 0kts
18-Dec-20 07:49 34.101447 -117.225116 271 1152ft 0kts
18-Dec-20 07:50 34.101447 -117.225116 271 1152ft 0kts
18-Dec-20 07:51 34.101447 -117.225116 271 1152ft 0kts
18-Dec-20 07:52 34.101447 -117.225116 270 1152ft 0kts
18-Dec-20 07:53 34.101447 -117.225116 270 1152ft 0kts
18-Dec-20 07:54 34.101447 -117.225116 270 1152ft 0kts
18-Dec-20 07:55 34.101447 -117.225116 270 1152ft 0kts
18-Dec-20 07:56 34.101447 -117.225116 270 1152ft 0kts
18-Dec-20 07:57 34.101447 -117.225116 270 1152ft 0kts
18-Dec-20 07:58 34.101447 -117.225116 270 1152ft 0kts
18-Dec-20 07:59 34.101447 -117.225116 270 1152ft 0kts
18-Dec-20 08:00 34.101447 -117.225116 270 1152ft 0kts
18-Dec-20 08:01 34.101447 -117.225116 270 1152ft 0kts
18-Dec-20 08:02 34.101447 -117.225116 270 1152ft 0kts
18-Dec-20 08:03 34.101293 -117.224857 204 1153ft 13kts
18-Dec-20 08:04 34.100005 -117.228212 318 1143ft 2kts
18-Dec-20 08:05 34.098732 -117.229774 256 1139ft 29kts
18-Dec-20 08:06 34.095886 -117.239345 249 1115ft 29kts
18-Dec-20 08:07 34.093762 -117.246573 249 1099ft 21kts
18-Dec-20 08:08 34.092244 -117.251522 155 1087ft 0kts
18-Dec-20 08:09 34.092233 -117.251507 100 1087ft 0kts
18-Dec-20 08:10 34.092233 -117.251507 100 1087ft 0kts
18-Dec-20 08:11 34.092233 -117.251507 100 1087ft 0kts
18-Dec-20 08:12 34.092233 -117.251507 100 1087ft 0kts
18-Dec-20 08:13 34.092233 -117.251507 100 1087ft 0kts
18-Dec-20 08:14 34.092233 -117.251507 100 1087ft 0kts
18-Dec-20 08:15 34.092233 -117.251507 100 1087ft 0kts
18-Dec-20 08:16 34.092216 -117.251423 104 1087ft 5kts
18-Dec-20 08:17 34.091624 -117.250845 148 1086ft 0kts
18-Dec-20 08:18 34.091366 -117.248312 73 1092ft 38kts
18-Dec-20 08:19 34.098330 -117.223594 71 1729ft 78kts
18-Dec-20 08:20 34.091854 -117.203966 171 2395ft 94kts
18-Dec-20 08:21 34.080843 -117.226680 255 2461ft 86kts
18-Dec-20 08:22 34.071113 -117.253193 250 2560ft 85kts
18-Dec-20 08:23 34.063453 -117.279353 254 2539ft 78kts
18-Dec-20 08:24 34.059483 -117.304564 275 2683ft 88kts
18-Dec-20 08:25 34.066009 -117.334139 298 3297ft 94kts
18-Dec-20 08:26 34.079866 -117.362780 300 3822ft 98kts
18-Dec-20 08:27 34.088429 -117.393451 274 4308ft 102kts
18-Dec-20 08:28 34.091372 -117.425429 279 4464ft 92kts
18-Dec-20 08:29 34.099687 -117.454795 303 4449ft 91kts
18-Dec-20 08:30 34.104456 -117.487628 269 4494ft 115kts
18-Dec-20 08:31 34.106731 -117.527320 277 4491ft 120kts
18-Dec-20 08:32 34.105551 -117.567429 264 4498ft 120kts
18-Dec-20 08:33 34.099023 -117.604720 259 4490ft 114kts
18-Dec-20 08:34 34.089949 -117.639913 254 4491ft 113kts
18-Dec-20 08:35 34.082554 -117.675359 269 4493ft 103kts
18-Dec-20 08:36 34.083396 -117.709737 276 4489ft 102kts
18-Dec-20 08:37 34.087361 -117.743516 285 4495ft 102kts
18-Dec-20 08:38 34.093768 -117.777002 285 4492ft 102kts
18-Dec-20 08:39 34.100323 -117.810737 286 4307ft 104kts
18-Dec-20 08:40 34.106633 -117.843835 285 3799ft 100kts
18-Dec-20 08:42 34.109144 -117.877168 275 3291ft 95kts
18-Dec-20 08:43 34.110337 -117.906617 278 2651ft 91kts
18-Dec-20 08:44 34.109018 -117.937011 253 1837ft 87kts
18-Dec-20 08:45 34.105269 -117.965081 279 1396ft 85kts
18-Dec-20 08:46 34.099770 -117.991149 254 1086ft 83kts
18-Dec-20 08:47 34.102878 -118.017620 275 811ft 73kts
18-Dec-20 08:48 34.089905 -118.032575 207 337ft 65kts
18-Dec-20 08:49 34.083074 -118.036075 79 286ft 0kts
18-Dec-20 08:50 34.083040 -118.036000 125 286ft 0kts
18-Dec-20 08:51 34.083814 -118.035394 80 288ft 6kts
18-Dec-20 08:52 34.083908 -118.035093 20 289ft 0kts

Navigation Log

Ident Type
Flight plan parsing failed, navigation log unavailable